Time;durP1;ratioP1;P1;durP2;ratioP2;P2;SDS_P1;SDS_P2;PMS_P1;PMS_P2;Temp;Humidity;BMP_temperature;BMP_pressure;BME280_temperature;BME280_humidity;BME280_pressure;Samples;Min_cycle;Max_cycle;Signal;HPM_P1;HPM_P2
2021/11/03 00:01:42;;;;;;;28.80;18.63;;;;;;;;;;5057076;28;20480;-69
2021/11/03 00:04:09;;;;;;;29.15;19.73;;;;;;;;;;5074936;28;20440;-70
2021/11/03 00:06:35;;;;;;;25.02;17.10;;;;;;;;;;5074853;28;20375;-70
2021/11/03 00:09:01;;;;;;;26.98;18.77;;;;;;;;;;5074792;28;20028;-70
2021/11/03 00:11:27;;;;;;;27.63;18.10;;;;;;;;;;5074851;28;20505;-70
2021/11/03 00:13:52;;;;;;;25.05;17.55;;;;;;;;;;5074601;28;20055;-69
2021/11/03 00:16:19;;;;;;;29.00;18.25;;;;;;;;;;5074841;28;20044;-69
2021/11/03 00:18:45;;;;;;;28.20;17.42;;;;;;;;;;5074453;28;20349;-69
2021/11/03 00:21:11;;;;;;;23.85;14.88;;;;;;;;;;5074647;28;20043;-69
2021/11/03 00:23:36;;;;;;;27.50;16.63;;;;;;;;;;5074518;28;20024;-68
2021/11/03 00:26:02;;;;;;;24.15;16.77;;;;;;;;;;5074906;28;20070;-69
2021/11/03 00:28:28;;;;;;;30.10;18.02;;;;;;;;;;5074495;28;20025;-70
2021/11/03 00:30:55;;;;;;;26.80;17.23;;;;;;;;;;5056629;28;20032;-69
2021/11/03 00:33:21;;;;;;;28.45;18.77;;;;;;;;;;5056063;28;20051;-68
2021/11/03 00:35:47;;;;;;;29.80;18.42;;;;;;;;;;5074035;28;20094;-69
2021/11/03 00:38:13;;;;;;;23.40;15.90;;;;;;;;;;5074314;28;20040;-69
2021/11/03 00:40:39;;;;;;;26.52;17.27;;;;;;;;;;5074324;28;20036;-69
2021/11/03 00:43:04;;;;;;;8.00;4.68;;;;;;;;;;5073062;28;20040;-64
2021/11/03 00:45:31;;;;;;;31.60;20.33;;;;;;;;;;5039872;28;20032;-64
2021/11/03 00:47:56;;;;;;;24.75;15.90;;;;;;;;;;5056308;28;20020;-64
2021/11/03 00:50:22;;;;;;;28.98;18.20;;;;;;;;;;5074194;28;20119;-65
2021/11/03 00:52:49;;;;;;;18.00;11.02;;;;;;;;;;5056164;28;20032;-64
2021/11/03 00:55:14;;;;;;;16.27;10.77;;;;;;;;;;5074057;28;20029;-64
2021/11/03 00:57:40;;;;;;;23.30;15.85;;;;;;;;;;5056062;28;20460;-65
2021/11/03 01:00:07;;;;;;;21.25;13.90;;;;;;;;;;5056050;28;20127;-65
2021/11/03 01:02:33;;;;;;;22.10;16.33;;;;;;;;;;5055829;28;20083;-63
2021/11/03 01:04:59;;;;;;;25.05;16.58;;;;;;;;;;5073670;28;20033;-64
2021/11/03 01:07:25;;;;;;;21.27;15.23;;;;;;;;;;5073771;28;20023;-64
2021/11/03 01:09:51;;;;;;;17.83;11.27;;;;;;;;;;5073854;28;20047;-64
2021/11/03 01:12:16;;;;;;;22.17;14.80;;;;;;;;;;5073630;28;20032;-64
2021/11/03 01:14:42;;;;;;;22.00;15.73;;;;;;;;;;5073775;28;20036;-64
2021/11/03 01:17:08;;;;;;;20.45;14.30;;;;;;;;;;5073673;28;20021;-64
2021/11/03 01:19:33;;;;;;;20.17;15.35;;;;;;;;;;5073696;28;20051;-64
2021/11/03 01:22:00;;;;;;;22.17;15.52;;;;;;;;;;5055448;28;20029;-64
2021/11/03 01:24:26;;;;;;;20.67;14.75;;;;;;;;;;5055586;28;20059;-64
2021/11/03 01:26:51;;;;;;;19.00;13.98;;;;;;;;;;5073512;28;20503;-68
2021/11/03 01:29:17;;;;;;;22.83;14.60;;;;;;;;;;5055913;28;20037;-63
2021/11/03 01:31:42;;;;;;;18.98;14.27;;;;;;;;;;5073550;28;20476;-64
2021/11/03 01:34:08;;;;;;;21.08;14.63;;;;;;;;;;5073085;28;20059;-64
2021/11/03 01:36:34;;;;;;;19.83;15.23;;;;;;;;;;5055557;28;20028;-64
2021/11/03 01:39:01;;;;;;;20.55;14.77;;;;;;;;;;5055335;28;20060;-64
2021/11/03 01:41:27;;;;;;;18.83;14.50;;;;;;;;;;5055644;28;20455;-64
2021/11/03 01:44:04;;;;;;;19.05;14.68;;;;;;;;;;5073252;28;20048;-64
2021/11/03 01:46:31;;;;;;;17.55;14.88;;;;;;;;;;5073282;28;20036;-63
2021/11/03 01:49:13;;;;;;;20.63;14.23;;;;;;;;;;5055522;28;20029;-64
2021/11/03 01:51:38;;;;;;;19.35;14.05;;;;;;;;;;5055132;28;20036;-64
2021/11/03 01:54:06;;;;;;;16.02;13.05;;;;;;;;;;5054770;28;20036;-64
2021/11/03 01:56:32;;;;;;;19.25;14.68;;;;;;;;;;5055236;28;20063;-64
2021/11/03 01:59:19;;;;;;;18.23;14.38;;;;;;;;;;5054954;28;20037;-64
2021/11/03 02:01:45;;;;;;;16.98;13.23;;;;;;;;;;5055008;28;20075;-64
2021/11/03 02:04:10;;;;;;;16.90;13.85;;;;;;;;;;5055298;28;20024;-64
2021/11/03 02:06:36;;;;;;;18.90;14.40;;;;;;;;;;5055236;28;20096;-69
2021/11/03 02:09:03;;;;;;;17.27;13.23;;;;;;;;;;5055243;28;20033;-69
2021/11/03 02:11:29;;;;;;;19.10;14.02;;;;;;;;;;5054864;28;20031;-69
2021/11/03 02:13:57;;;;;;;20.38;14.65;;;;;;;;;;5055198;28;20101;-69
2021/11/03 02:16:23;;;;;;;17.63;13.07;;;;;;;;;;5055078;28;20041;-69
2021/11/03 02:18:49;;;;;;;19.02;13.05;;;;;;;;;;5073003;28;20032;-70
2021/11/03 02:21:25;;;;;;;18.52;13.27;;;;;;;;;;5055081;28;20377;-71
2021/11/03 02:24:00;;;;;;;17.08;13.57;;;;;;;;;;5054814;28;20094;-70
2021/11/03 02:26:28;;;;;;;17.52;13.98;;;;;;;;;;5054678;28;20120;-70
2021/11/03 02:28:54;;;;;;;17.95;13.60;;;;;;;;;;5054899;28;20024;-70
2021/11/03 02:31:32;;;;;;;17.50;13.68;;;;;;;;;;5054789;28;20067;-63
2021/11/03 02:34:00;;;;;;;19.02;13.95;;;;;;;;;;5054171;28;20079;-64
2021/11/03 02:36:26;;;;;;;16.95;13.80;;;;;;;;;;5055088;28;20135;-64
2021/11/03 02:38:51;;;;;;;17.58;13.23;;;;;;;;;;5054797;28;20106;-63
2021/11/03 02:41:20;;;;;;;16.60;13.65;;;;;;;;;;5072874;28;20101;-64
2021/11/03 02:43:50;;;;;;;17.20;13.73;;;;;;;;;;5054701;28;20052;-69
2021/11/03 02:46:16;;;;;;;18.88;13.32;;;;;;;;;;5038353;28;20033;-70
2021/11/03 02:48:43;;;;;;;14.73;12.73;;;;;;;;;;5072640;28;20051;-70
2021/11/03 02:51:32;;;;;;;16.58;13.43;;;;;;;;;;5054977;28;20376;-70
2021/11/03 02:54:04;;;;;;;16.23;13.77;;;;;;;;;;5042075;28;20037;-70
2021/11/03 02:56:36;;;;;;;19.08;14.50;;;;;;;;;;5054593;28;20068;-70
2021/11/03 02:59:03;;;;;;;17.73;14.00;;;;;;;;;;5072972;28;20119;-69
2021/11/03 03:01:37;;;;;;;20.73;15.43;;;;;;;;;;5054620;28;20473;-69
2021/11/03 03:04:07;;;;;;;19.65;14.13;;;;;;;;;;5054331;28;20098;-70
2021/11/03 03:06:33;;;;;;;18.15;13.90;;;;;;;;;;5056288;28;20036;-69
2021/11/03 03:09:00;;;;;;;18.45;14.57;;;;;;;;;;5076291;28;20032;-69
2021/11/03 03:11:28;;;;;;;15.98;12.95;;;;;;;;;;5058186;28;20094;-69
2021/11/03 03:13:55;;;;;;;18.92;14.15;;;;;;;;;;5057869;28;20043;-69
2021/11/03 03:16:20;;;;;;;17.35;13.70;;;;;;;;;;5057746;28;20024;-70
2021/11/03 03:18:47;;;;;;;22.98;16.88;;;;;;;;;;5057501;28;20097;-70
2021/11/03 03:21:13;;;;;;;18.05;14.32;;;;;;;;;;5058061;28;20040;-69
2021/11/03 03:23:44;;;;;;;15.63;12.32;;;;;;;;;;5041926;28;20270;-69
2021/11/03 03:26:12;;;;;;;17.90;13.35;;;;;;;;;;5057922;28;20029;-70
2021/11/03 03:28:38;;;;;;;18.92;14.65;;;;;;;;;;5075718;28;20028;-70
2021/11/03 03:31:08;;;;;;;20.60;14.52;;;;;;;;;;5057733;28;20094;-63
2021/11/03 03:33:34;;;;;;;19.23;14.65;;;;;;;;;;5057249;28;20036;-64
2021/11/03 03:36:00;;;;;;;19.33;14.45;;;;;;;;;;5057893;28;20488;-63
2021/11/03 03:38:27;;;;;;;19.48;14.25;;;;;;;;;;5057513;28;20372;-63
2021/11/03 03:40:53;;;;;;;21.35;15.30;;;;;;;;;;5057564;28;20495;-63
2021/11/03 03:43:18;;;;;;;21.65;16.40;;;;;;;;;;5057157;28;20031;-63
2021/11/03 03:45:45;;;;;;;19.55;15.35;;;;;;;;;;5041181;28;20511;-63
2021/11/03 03:48:11;;;;;;;21.42;15.15;;;;;;;;;;5057359;28;20031;-63
2021/11/03 03:50:37;;;;;;;21.65;16.17;;;;;;;;;;5057385;28;20075;-64
2021/11/03 03:53:03;;;;;;;20.40;15.82;;;;;;;;;;5057141;28;20029;-64
2021/11/03 03:55:29;;;;;;;21.85;15.57;;;;;;;;;;5057362;28;20123;-64
2021/11/03 03:57:56;;;;;;;22.48;16.75;;;;;;;;;;5075249;28;20032;-63
2021/11/03 04:00:22;;;;;;;22.20;15.85;;;;;;;;;;5057212;28;20032;-63
2021/11/03 04:02:52;;;;;;;19.80;15.75;;;;;;;;;;5057345;28;20369;-63
2021/11/03 04:05:19;;;;;;;21.02;14.95;;;;;;;;;;5057211;28;20068;-63
2021/11/03 04:07:45;;;;;;;23.60;16.17;;;;;;;;;;5057329;28;20400;-64
2021/11/03 04:10:12;;;;;;;23.65;16.70;;;;;;;;;;5057463;28;20040;-63
2021/11/03 04:12:38;;;;;;;22.48;16.90;;;;;;;;;;5056830;28;20024;-63
2021/11/03 04:15:05;;;;;;;23.33;17.45;;;;;;;;;;5056533;28;20048;-69
2021/11/03 04:17:33;;;;;;;25.50;18.55;;;;;;;;;;5056534;28;20028;-69
2021/11/03 04:19:58;;;;;;;24.60;18.08;;;;;;;;;;5056636;28;20491;-64
2021/11/03 04:22:24;;;;;;;24.90;18.80;;;;;;;;;;5039993;28;20036;-63
2021/11/03 04:24:51;;;;;;;24.73;18.38;;;;;;;;;;5056759;28;20037;-63
2021/11/03 04:27:17;;;;;;;26.50;19.52;;;;;;;;;;5056548;28;20025;-63
2021/11/03 04:29:43;;;;;;;28.10;20.35;;;;;;;;;;5056576;28;20033;-63
2021/11/03 04:32:11;;;;;;;27.98;20.00;;;;;;;;;;5056389;28;20107;-63
2021/11/03 04:34:37;;;;;;;25.75;18.75;;;;;;;;;;5056184;28;20074;-63
2021/11/03 04:37:06;;;;;;;24.08;18.23;;;;;;;;;;5056744;28;20434;-63
2021/11/03 04:39:36;;;;;;;30.88;20.70;;;;;;;;;;5056144;28;20055;-63
2021/11/03 04:42:02;;;;;;;27.10;18.38;;;;;;;;;;5056305;28;20048;-63
2021/11/03 04:44:28;;;;;;;27.60;19.23;;;;;;;;;;5056513;28;20041;-64
2021/11/03 04:46:53;;;;;;;26.45;18.92;;;;;;;;;;5056363;28;20034;-64
2021/11/03 04:49:25;;;;;;;25.48;18.30;;;;;;;;;;5056343;28;20039;-64
2021/11/03 04:51:53;;;;;;;35.90;23.38;;;;;;;;;;5039750;28;20139;-64
2021/11/03 04:54:19;;;;;;;38.08;23.48;;;;;;;;;;5056011;28;20032;-63
2021/11/03 04:56:45;;;;;;;37.17;24.02;;;;;;;;;;5073734;28;20112;-63
2021/11/03 04:59:11;;;;;;;33.72;20.88;;;;;;;;;;5055787;28;20029;-63
2021/11/03 05:01:37;;;;;;;38.47;22.83;;;;;;;;;;5055854;28;20040;-63
2021/11/03 05:04:03;;;;;;;31.90;21.70;;;;;;;;;;5055459;28;20036;-63
2021/11/03 05:06:32;;;;;;;33.92;21.90;;;;;;;;;;5055036;28;20033;-71
2021/11/03 05:09:00;;;;;;;32.10;21.33;;;;;;;;;;5054466;28;20127;-70
2021/11/03 05:11:26;;;;;;;32.83;20.98;;;;;;;;;;5054896;28;20395;-71
2021/11/03 05:13:52;;;;;;;28.30;18.45;;;;;;;;;;5055237;28;20032;-71
2021/11/03 05:16:21;;;;;;;26.95;18.45;;;;;;;;;;5056046;28;20051;-69
2021/11/03 05:18:50;;;;;;;25.30;16.00;;;;;;;;;;5055561;28;20078;-69
2021/11/03 05:21:15;;;;;;;23.30;17.70;;;;;;;;;;5055573;28;20040;-69
2021/11/03 05:23:41;;;;;;;21.50;16.35;;;;;;;;;;5055446;28;20039;-69
2021/11/03 05:26:07;;;;;;;23.45;17.77;;;;;;;;;;5073707;28;20050;-69
2021/11/03 05:32:08;;;;;;;22.92;15.52;;;;;;;;;;5074314;28;20035;-69
2021/11/03 05:41:37;;;;;;;24.98;14.68;;;;;;;;;;5073905;28;20576;-69
2021/11/03 05:47:38;;;;;;;25.38;13.80;;;;;;;;;;5073843;28;20479;-70
2021/11/03 05:53:39;;;;;;;21.80;15.23;;;;;;;;;;5073761;28;20027;-69
2021/11/03 05:59:40;;;;;;;38.92;24.17;;;;;;;;;;5073747;28;20023;-69
2021/11/03 06:05:41;;;;;;;21.70;14.60;;;;;;;;;;5073685;28;20087;-70
2021/11/03 06:11:42;;;;;;;29.67;17.75;;;;;;;;;;5073611;28;20031;-70
2021/11/03 06:17:43;;;;;;;24.40;15.18;;;;;;;;;;5073539;28;20036;-69
2021/11/03 06:23:44;;;;;;;23.85;15.75;;;;;;;;;;5073220;28;20050;-69
2021/11/03 06:29:45;;;;;;;21.27;13.60;;;;;;;;;;5073454;28;20087;-69
2021/11/03 06:39:53;;;;;;;17.77;12.73;;;;;;;;;;5070006;28;20465;-70
2021/11/03 06:46:08;;;;;;;20.83;14.32;;;;;;;;;;5057053;28;20063;-70
2021/11/03 06:52:08;;;;;;;22.00;14.27;;;;;;;;;;5056951;28;20142;-69
2021/11/03 06:58:09;;;;;;;24.55;15.70;;;;;;;;;;5056852;28;20095;-68
2021/11/03 07:04:09;;;;;;;25.42;15.68;;;;;;;;;;5056441;28;20032;-69
2021/11/03 07:10:16;;;;;;;29.20;15.60;;;;;;;;;;5056600;28;20032;-69
2021/11/03 07:16:17;;;;;;;24.88;14.30;;;;;;;;;;5056479;28;20515;-69
2021/11/03 07:22:18;;;;;;;17.98;10.65;;;;;;;;;;5056581;28;20067;-69
2021/11/03 07:28:19;;;;;;;20.00;12.70;;;;;;;;;;5056316;28;20499;-69
2021/11/03 07:30:45;;;;;;;21.40;14.27;;;;;;;;;;5056003;28;20068;-69
2021/11/03 07:33:11;;;;;;;21.65;13.63;;;;;;;;;;5055587;28;20056;-69
2021/11/03 07:35:37;;;;;;;19.23;13.15;;;;;;;;;;5055466;28;20041;-69
2021/11/03 07:38:04;;;;;;;16.10;10.48;;;;;;;;;;5055149;28;20033;-69
2021/11/03 07:40:32;;;;;;;13.75;9.77;;;;;;;;;;5059666;28;20136;-69
2021/11/03 07:42:58;;;;;;;16.92;10.27;;;;;;;;;;5074507;28;20119;-69
2021/11/03 07:45:25;;;;;;;14.13;9.93;;;;;;;;;;5075161;28;20479;-69
2021/11/03 07:47:50;;;;;;;13.35;9.50;;;;;;;;;;5075263;28;20531;-69
2021/11/03 07:53:59;;;;;;;12.75;7.50;;;;;;;;;;5075566;28;20098;-69
2021/11/03 08:00:00;;;;;;;10.68;8.13;;;;;;;;;;5075688;28;20032;-69
2021/11/03 08:02:26;;;;;;;9.20;7.05;;;;;;;;;;5075057;28;20032;-69
2021/11/03 08:04:51;;;;;;;8.35;6.97;;;;;;;;;;5040421;28;20037;-69
2021/11/03 08:07:17;;;;;;;8.88;6.70;;;;;;;;;;5075028;28;20182;-69
2021/11/03 08:09:46;;;;;;;10.35;6.68;;;;;;;;;;5075031;28;20513;-69
2021/11/03 08:12:12;;;;;;;9.38;6.93;;;;;;;;;;5075196;28;20041;-69
2021/11/03 08:14:38;;;;;;;7.97;6.70;;;;;;;;;;5074584;28;20436;-68
2021/11/03 08:17:03;;;;;;;7.95;6.18;;;;;;;;;;5074602;28;20025;-68
2021/11/03 08:19:32;;;;;;;9.25;6.93;;;;;;;;;;5074740;28;20108;-69
2021/11/03 08:21:59;;;;;;;9.02;6.10;;;;;;;;;;5074448;28;20385;-68
2021/11/03 08:24:24;;;;;;;8.80;6.20;;;;;;;;;;5074734;28;20107;-69
2021/11/03 08:26:52;;;;;;;6.03;5.43;;;;;;;;;;5074528;28;20460;-69
2021/11/03 08:29:19;;;;;;;6.97;5.72;;;;;;;;;;5074703;28;20032;-69
2021/11/03 08:31:46;;;;;;;6.25;4.95;;;;;;;;;;5074691;28;20025;-69
2021/11/03 08:34:13;;;;;;;5.35;4.50;;;;;;;;;;5074351;28;20036;-69
2021/11/03 08:36:39;;;;;;;5.55;4.38;;;;;;;;;;5074106;28;20480;-69
2021/11/03 08:39:06;;;;;;;5.63;4.43;;;;;;;;;;5074084;28;20031;-69
2021/11/03 08:41:31;;;;;;;4.32;3.83;;;;;;;;;;5073859;28;20052;-69
2021/11/03 08:43:57;;;;;;;4.13;3.72;;;;;;;;;;5074218;28;20039;-69
2021/11/03 08:46:23;;;;;;;4.50;4.07;;;;;;;;;;5074200;28;20115;-69
2021/11/03 08:48:49;;;;;;;4.25;3.85;;;;;;;;;;5074164;28;20116;-69
2021/11/03 08:51:15;;;;;;;3.63;3.03;;;;;;;;;;5056149;28;20500;-69
2021/11/03 08:53:40;;;;;;;4.60;3.40;;;;;;;;;;5056038;28;20055;-69
2021/11/03 08:56:06;;;;;;;3.58;3.28;;;;;;;;;;5074210;28;20118;-69
2021/11/03 08:58:31;;;;;;;4.97;3.80;;;;;;;;;;5073802;28;20350;-69
2021/11/03 09:00:57;;;;;;;4.07;3.20;;;;;;;;;;5074160;28;20427;-69
2021/11/03 09:03:23;;;;;;;4.00;3.60;;;;;;;;;;5073560;28;20549;-69
2021/11/03 09:05:49;;;;;;;4.35;3.85;;;;;;;;;;5074039;28;20056;-69
2021/11/03 09:08:15;;;;;;;3.75;3.45;;;;;;;;;;5073722;28;20051;-69
2021/11/03 09:14:16;;;;;;;3.80;3.50;;;;;;;;;;5074275;28;20104;-69
2021/11/03 09:20:18;;;;;;;3.50;3.20;;;;;;;;;;5074207;28;20158;-67
2021/11/03 09:26:20;;;;;;;3.20;2.88;;;;;;;;;;5074120;28;20022;-68
2021/11/03 09:32:22;;;;;;;3.72;2.40;;;;;;;;;;5074017;28;20467;-67
2021/11/03 09:38:25;;;;;;;6.55;2.50;;;;;;;;;;5073949;28;20035;-65
2021/11/03 09:48:02;;;;;;;7.45;3.03;;;;;;;;;;5073862;28;20067;-66
2021/11/03 09:54:07;;;;;;;3.40;2.40;;;;;;;;;;5073530;28;20077;-65
2021/11/03 10:10:39;;;;;;;1.88;1.77;;;;;;;;;;5011940;28;20533;-66
2021/11/03 10:26:55;;;;;;;2.20;1.90;;;;;;;;;;5015704;28;20124;-66
2021/11/03 10:32:55;;;;;;;2.40;2.00;;;;;;;;;;5017770;28;20085;-65
2021/11/03 10:38:58;;;;;;;2.20;2.00;;;;;;;;;;5077222;28;20019;-66
2021/11/03 11:03:18;;;;;;;3.13;1.90;;;;;;;;;;5034500;28;20079;-66
2021/11/03 11:12:59;;;;;;;2.17;1.95;;;;;;;;;;5034534;28;20096;-67
2021/11/03 11:22:49;;;;;;;2.17;1.73;;;;;;;;;;5034215;28;20099;-67
2021/11/03 11:32:24;;;;;;;1.85;1.67;;;;;;;;;;5034217;28;20083;-67
2021/11/03 11:42:02;;;;;;;1.73;1.63;;;;;;;;;;5014068;28;20088;-67
2021/11/03 11:58:38;;;;;;;3.05;1.90;;;;;;;;;;5055754;28;20548;-65
2021/11/03 12:04:40;;;;;;;3.60;1.50;;;;;;;;;;5055639;28;20048;-65
2021/11/03 12:10:41;;;;;;;1.70;1.25;;;;;;;;;;5055508;28;20442;-65
2021/11/03 12:38:01;;;;;;;1.38;1.27;;;;;;;;;;4993402;28;20073;-67
2021/11/03 12:44:01;;;;;;;2.33;1.25;;;;;;;;;;4993253;28;20045;-68
2021/11/03 12:46:27;;;;;;;2.05;1.70;;;;;;;;;;4993511;28;20042;-67
2021/11/03 12:49:01;;;;;;;2.33;1.70;;;;;;;;;;5011627;28;20104;-67
2021/11/03 12:51:44;;;;;;;5.93;2.10;;;;;;;;;;5063719;28;20041;-67
2021/11/03 12:54:20;;;;;;;13.43;6.20;;;;;;;;;;5073480;28;20075;-67
2021/11/03 13:00:23;;;;;;;6.72;4.50;;;;;;;;;;5074318;28;20022;-68
2021/11/03 13:06:26;;;;;;;1.92;1.73;;;;;;;;;;5074132;28;20442;-68
2021/11/03 13:12:29;;;;;;;5.20;4.20;;;;;;;;;;5074057;28;20082;-68
2021/11/03 13:18:39;;;;;;;15.85;7.97;;;;;;;;;;5074207;28;20031;-68
2021/11/03 13:24:40;;;;;;;22.17;12.13;;;;;;;;;;5074124;28;20496;-68
2021/11/03 13:30:41;;;;;;;25.05;17.38;;;;;;;;;;5074093;28;20027;-68
2021/11/03 13:54:59;;;;;;;1.83;1.70;;;;;;;;;;4972815;28;19917;-68
2021/11/03 14:01:05;;;;;;;1.65;1.30;;;;;;;;;;4972790;28;20030;-68
2021/11/03 14:07:05;;;;;;;2.63;2.42;;;;;;;;;;4972955;28;20517;-68
2021/11/03 14:13:04;;;;;;;5.82;3.15;;;;;;;;;;4972912;28;20517;-68
2021/11/03 14:29:50;;;;;;;1.00;1.00;;;;;;;;;;4991972;28;20143;-68
2021/11/03 14:39:28;;;;;;;4.50;1.60;;;;;;;;;;4991867;28;20030;-68
2021/11/03 14:41:54;;;;;;;2.88;1.58;;;;;;;;;;4990860;28;20038;-68
2021/11/03 14:44:22;;;;;;;1.25;1.10;;;;;;;;;;4989505;28;20034;-69
2021/11/03 14:46:52;;;;;;;1.27;1.17;;;;;;;;;;4989738;28;20569;-69
2021/11/03 14:49:37;;;;;;;1.23;1.13;;;;;;;;;;4993590;28;20042;-68
2021/11/03 14:52:05;;;;;;;2.40;1.10;;;;;;;;;;5001134;28;20032;-69
2021/11/03 14:54:31;;;;;;;1.75;1.33;;;;;;;;;;5072798;28;20480;-68
2021/11/03 14:56:56;;;;;;;2.50;2.28;;;;;;;;;;5072655;28;20139;-68
2021/11/03 14:59:22;;;;;;;8.48;5.97;;;;;;;;;;5072921;28;20036;-68
2021/11/03 15:01:53;;;;;;;23.42;17.65;;;;;;;;;;5073308;28;20046;-69
2021/11/03 15:04:19;;;;;;;18.90;12.52;;;;;;;;;;5076284;28;20040;-68
2021/11/03 15:06:44;;;;;;;20.02;13.82;;;;;;;;;;5076151;28;20486;-69
2021/11/03 15:09:40;;;;;;;28.75;17.63;;;;;;;;;;5075598;28;20063;-67
2021/11/03 15:12:07;;;;;;;36.08;22.17;;;;;;;;;;5042485;28;20075;-68
2021/11/03 15:14:35;;;;;;;36.10;19.42;;;;;;;;;;5056233;28;20368;-69
2021/11/03 15:17:01;;;;;;;32.22;18.55;;;;;;;;;;5038196;28;20378;-68
2021/11/03 15:19:30;;;;;;;31.17;19.05;;;;;;;;;;5055729;28;20079;-69
2021/11/03 15:21:56;;;;;;;22.30;15.50;;;;;;;;;;5055785;28;20037;-67
2021/11/03 15:24:22;;;;;;;22.65;15.85;;;;;;;;;;5037872;28;20036;-69
2021/11/03 15:26:48;;;;;;;21.50;13.10;;;;;;;;;;5055874;28;20029;-68
2021/11/03 15:29:15;;;;;;;13.77;10.02;;;;;;;;;;5055821;28;20032;-69
2021/11/03 15:31:41;;;;;;;15.50;10.80;;;;;;;;;;5055954;28;20033;-67
2021/11/03 15:34:33;;;;;;;9.85;6.30;;;;;;;;;;5055843;28;20151;-69
2021/11/03 15:37:00;;;;;;;4.72;3.95;;;;;;;;;;5050947;28;20048;-68
2021/11/03 15:39:30;;;;;;;5.90;4.15;;;;;;;;;;5055449;28;20029;-67
2021/11/03 15:41:57;;;;;;;4.65;4.07;;;;;;;;;;5070853;28;20037;-68
2021/11/03 15:44:23;;;;;;;9.30;7.05;;;;;;;;;;5075642;28;20048;-67
2021/11/03 15:46:51;;;;;;;16.27;12.32;;;;;;;;;;5075185;28;20116;-68
2021/11/03 15:49:17;;;;;;;19.95;16.98;;;;;;;;;;5074795;28;20044;-68
2021/11/03 15:51:42;;;;;;;24.17;20.10;;;;;;;;;;5075317;28;20376;-69
2021/11/03 15:54:11;;;;;;;29.63;22.35;;;;;;;;;;5075595;28;20035;-69
2021/11/03 15:56:38;;;;;;;27.95;19.08;;;;;;;;;;5075530;28;20036;-68
2021/11/03 15:59:04;;;;;;;18.85;12.90;;;;;;;;;;5075108;28;20086;-60
2021/11/03 16:01:30;;;;;;;16.98;11.48;;;;;;;;;;5075103;28;20480;-60
2021/11/03 16:03:57;;;;;;;18.15;11.70;;;;;;;;;;5075070;28;20031;-60
2021/11/03 16:06:24;;;;;;;16.20;10.73;;;;;;;;;;5075044;28;20040;-60
2021/11/03 16:08:49;;;;;;;11.13;8.13;;;;;;;;;;5074766;28;20028;-59
2021/11/03 16:11:15;;;;;;;11.23;7.70;;;;;;;;;;5074870;28;20037;-60
2021/11/03 16:13:40;;;;;;;8.38;7.47;;;;;;;;;;5073175;28;20039;-60
2021/11/03 16:16:07;;;;;;;12.13;9.48;;;;;;;;;;5074358;28;20496;-59
2021/11/03 16:18:33;;;;;;;7.85;6.40;;;;;;;;;;5074023;28;20074;-59
2021/11/03 16:21:01;;;;;;;15.40;10.93;;;;;;;;;;5074935;28;20068;-60
2021/11/03 16:23:29;;;;;;;17.27;10.48;;;;;;;;;;5074830;28;20035;-60
2021/11/03 16:25:56;;;;;;;22.25;13.38;;;;;;;;;;5074629;28;20040;-60
2021/11/03 16:28:24;;;;;;;29.98;17.92;;;;;;;;;;5074660;28;20111;-59
2021/11/03 16:30:51;;;;;;;28.88;18.70;;;;;;;;;;5074697;28;20029;-60
2021/11/03 16:33:17;;;;;;;29.67;15.77;;;;;;;;;;5074448;28;20033;-60
2021/11/03 16:35:44;;;;;;;30.13;15.40;;;;;;;;;;5074433;28;20036;-59
2021/11/03 16:38:10;;;;;;;19.63;12.20;;;;;;;;;;5073656;28;20029;-59
2021/11/03 16:40:38;;;;;;;25.00;12.68;;;;;;;;;;5074232;28;20064;-59
2021/11/03 16:43:07;;;;;;;17.67;10.23;;;;;;;;;;5074372;28;20032;-60
2021/11/03 16:45:36;;;;;;;16.27;10.10;;;;;;;;;;5074448;28;20041;-59
2021/11/03 16:48:13;;;;;;;17.08;10.57;;;;;;;;;;5074048;28;20024;-59
2021/11/03 16:50:41;;;;;;;16.10;9.82;;;;;;;;;;5074118;28;20052;-60
2021/11/03 16:53:07;;;;;;;20.85;11.50;;;;;;;;;;5074339;28;20499;-59
2021/11/03 16:55:33;;;;;;;18.17;10.98;;;;;;;;;;5074033;28;20036;-59
2021/11/03 16:58:00;;;;;;;15.68;10.48;;;;;;;;;;5074227;28;20442;-59
2021/11/03 17:00:38;;;;;;;15.35;10.20;;;;;;;;;;5056497;28;20032;-59
2021/11/03 17:03:04;;;;;;;17.27;10.75;;;;;;;;;;5074002;28;20534;-59
2021/11/03 17:05:29;;;;;;;41.03;23.88;;;;;;;;;;5073619;28;20024;-67
2021/11/03 17:08:09;;;;;;;28.02;19.40;;;;;;;;;;5073874;28;20036;-67
2021/11/03 17:10:35;;;;;;;13.18;10.07;;;;;;;;;;5055885;28;20033;-69
2021/11/03 17:13:00;;;;;;;17.73;11.70;;;;;;;;;;5074180;28;20526;-69
2021/11/03 17:15:29;;;;;;;19.27;10.98;;;;;;;;;;5073606;28;20547;-68
2021/11/03 17:17:56;;;;;;;20.27;11.68;;;;;;;;;;5074121;28;20037;-68
2021/11/03 17:20:24;;;;;;;21.23;12.35;;;;;;;;;;5073955;28;20032;-69
2021/11/03 17:22:49;;;;;;;16.98;11.88;;;;;;;;;;5073634;28;20044;-60
2021/11/03 17:25:16;;;;;;;20.75;10.75;;;;;;;;;;5073253;28;20037;-59
2021/11/03 17:27:44;;;;;;;27.58;13.20;;;;;;;;;;5073526;28;20016;-59
2021/11/03 17:30:15;;;;;;;30.52;12.25;;;;;;;;;;5073515;28;20040;-59
2021/11/03 17:32:42;;;;;;;40.08;13.88;;;;;;;;;;5073376;28;20116;-59
2021/11/03 17:35:13;;;;;;;86.18;36.25;;;;;;;;;;5073519;28;20104;-60
2021/11/03 17:37:39;;;;;;;65.20;31.38;;;;;;;;;;5073285;28;20055;-59
2021/11/03 17:40:05;;;;;;;64.38;22.38;;;;;;;;;;5073418;28;20024;-60
2021/11/03 17:42:36;;;;;;;74.88;25.25;;;;;;;;;;5073474;28;20041;-59
2021/11/03 17:45:03;;;;;;;59.38;19.23;;;;;;;;;;5055643;28;20387;-58
2021/11/03 17:47:30;;;;;;;47.35;18.45;;;;;;;;;;5073198;28;20399;-58
2021/11/03 17:50:02;;;;;;;41.83;14.98;;;;;;;;;;5072689;28;20083;-67
2021/11/03 17:52:27;;;;;;;23.92;13.43;;;;;;;;;;5073234;28;20378;-67
2021/11/03 17:54:53;;;;;;;24.73;11.32;;;;;;;;;;5073098;28;20048;-67
2021/11/03 17:57:22;;;;;;;31.13;15.38;;;;;;;;;;5071200;28;20049;-65
2021/11/03 17:59:49;;;;;;;52.88;18.15;;;;;;;;;;5070097;28;20041;-64
2021/11/03 18:02:18;;;;;;;85.13;35.05;;;;;;;;;;5073311;28;20028;-64
2021/11/03 18:04:44;;;;;;;61.20;29.38;;;;;;;;;;5073053;28;20387;-64
2021/11/03 18:07:10;;;;;;;68.32;31.25;;;;;;;;;;5073199;28;20111;-64
2021/11/03 18:09:35;;;;;;;48.75;21.33;;;;;;;;;;5073546;28;20063;-64
2021/11/03 18:12:01;;;;;;;73.00;39.70;;;;;;;;;;5073313;28;20550;-64
2021/11/03 18:14:34;;;;;;;191.68;115.00;;;;;;;;;;5073093;28;20044;-65
2021/11/03 18:17:00;;;;;;;174.57;103.72;;;;;;;;;;5072862;28;20037;-65
2021/11/03 18:19:28;;;;;;;55.67;35.25;;;;;;;;;;5071717;28;20040;-65
2021/11/03 18:21:54;;;;;;;40.95;23.65;;;;;;;;;;5072964;28;20392;-59
2021/11/03 18:24:20;;;;;;;33.78;20.20;;;;;;;;;;5055335;28;20033;-59
2021/11/03 18:26:48;;;;;;;60.47;32.10;;;;;;;;;;5073210;28;20067;-58
2021/11/03 18:29:22;;;;;;;40.95;24.23;;;;;;;;;;5073182;28;20083;-58
2021/11/03 18:35:44;;;;;;;29.33;16.23;;;;;;;;;;5073229;28;20079;-58
2021/11/03 18:41:48;;;;;;;47.65;24.98;;;;;;;;;;5077261;28;20024;-59
2021/11/03 18:47:48;;;;;;;40.45;18.70;;;;;;;;;;5077124;28;20082;-60
2021/11/03 18:56:58;;;;;;;46.30;26.48;;;;;;;;;;5077080;28;20032;-58
2021/11/03 18:59:52;;;;;;;28.95;16.67;;;;;;;;;;5076536;28;20033;-58
2021/11/03 19:02:17;;;;;;;23.52;16.00;;;;;;;;;;5058523;28;20032;-72
2021/11/03 19:04:44;;;;;;;25.48;14.30;;;;;;;;;;5076287;28;20115;-61
2021/11/03 19:07:11;;;;;;;31.02;17.50;;;;;;;;;;5075912;28;20025;-62
2021/11/03 19:09:38;;;;;;;45.25;22.40;;;;;;;;;;5075563;28;20025;-61
2021/11/03 19:12:06;;;;;;;41.50;21.33;;;;;;;;;;5075734;28;20024;-61
2021/11/03 19:14:33;;;;;;;75.35;54.65;;;;;;;;;;5076201;28;20123;-61
2021/11/03 19:16:59;;;;;;;26.40;14.52;;;;;;;;;;5076507;28;20552;-61
2021/11/03 19:19:25;;;;;;;22.17;13.25;;;;;;;;;;5076245;28;20119;-61
2021/11/03 19:21:53;;;;;;;33.35;17.40;;;;;;;;;;5057671;28;20115;-61
2021/11/03 19:24:23;;;;;;;31.45;20.85;;;;;;;;;;5076056;28;20059;-61
2021/11/03 19:26:51;;;;;;;22.98;13.35;;;;;;;;;;5076113;28;20434;-61
2021/11/03 19:29:24;;;;;;;23.10;12.13;;;;;;;;;;5076229;28;20052;-61
2021/11/03 19:31:50;;;;;;;35.55;23.65;;;;;;;;;;5075843;28;20044;-61
2021/11/03 19:34:17;;;;;;;32.55;21.27;;;;;;;;;;5076052;28;20120;-61
2021/11/03 19:36:45;;;;;;;27.92;18.15;;;;;;;;;;5075874;28;20037;-61
2021/11/03 19:39:18;;;;;;;29.85;18.63;;;;;;;;;;5075669;28;20082;-61
2021/11/03 19:41:44;;;;;;;28.98;16.42;;;;;;;;;;5075726;28;20044;-61
2021/11/03 19:44:11;;;;;;;24.30;13.18;;;;;;;;;;5075749;28;20393;-61
2021/11/03 19:46:36;;;;;;;29.67;16.80;;;;;;;;;;5076018;28;20031;-61
2021/11/03 19:49:02;;;;;;;30.75;14.85;;;;;;;;;;5074927;28;20018;-61
2021/11/03 19:51:30;;;;;;;26.55;13.90;;;;;;;;;;5075366;28;20171;-61
2021/11/03 19:53:57;;;;;;;36.60;16.38;;;;;;;;;;5074900;28;20040;-61
2021/11/03 19:56:24;;;;;;;36.70;23.48;;;;;;;;;;5057442;28;20438;-61
2021/11/03 19:58:50;;;;;;;23.10;10.57;;;;;;;;;;5075311;28;20115;-62
2021/11/03 20:01:16;;;;;;;30.65;14.43;;;;;;;;;;5074971;28;20048;-61
2021/11/03 20:03:44;;;;;;;31.67;15.90;;;;;;;;;;5075107;28;20028;-61
2021/11/03 20:06:17;;;;;;;25.27;12.75;;;;;;;;;;5074982;28;20055;-61